createdAt,value
2023-02-26T00:00:52.103Z,64.27
2023-02-26T00:01:52.098Z,64.74
2023-02-26T00:02:52.054Z,64.36
2023-02-26T00:03:51.957Z,64.55
2023-02-26T00:04:51.910Z,64.46
2023-02-26T00:05:51.867Z,64.27
2023-02-26T00:06:51.818Z,64.65
2023-02-26T00:07:51.782Z,64.08
2023-02-26T00:08:51.717Z,64.08
2023-02-26T00:09:51.669Z,64.17
2023-02-26T00:10:51.635Z,64.08
2023-02-26T00:11:51.577Z,64.27
2023-02-26T00:12:51.529Z,63.89
2023-02-26T00:13:51.493Z,64.08
2023-02-26T00:14:51.435Z,64.27
2023-02-26T00:15:51.405Z,64.55
2023-02-26T00:16:51.391Z,64.17
2023-02-26T00:17:51.299Z,64.27
2023-02-26T00:18:51.266Z,64.36
2023-02-26T00:19:51.192Z,64.27
2023-02-26T00:20:51.143Z,64.36
2023-02-26T00:21:51.102Z,64.36
2023-02-26T00:22:51.063Z,64.93
2023-02-26T00:23:51.000Z,65.12
2023-02-26T00:24:50.984Z,65.03
2023-02-26T00:25:50.913Z,64.84
2023-02-26T00:26:50.864Z,65.03
2023-02-26T00:27:50.813Z,65.22
2023-02-26T00:28:50.764Z,65.22
2023-02-26T00:29:50.723Z,65.22
2023-02-26T00:30:50.722Z,65.12
2023-02-26T00:31:50.670Z,65.31
2023-02-26T00:32:50.574Z,65.31
2023-02-26T00:33:50.525Z,65.69
2023-02-26T00:34:50.476Z,65.31
2023-02-26T00:35:50.459Z,65.12
2023-02-26T00:36:50.384Z,65.22
2023-02-26T00:37:50.330Z,65.31
2023-02-26T00:38:50.288Z,65.88
2023-02-26T00:39:50.236Z,65.22
2023-02-26T00:40:50.190Z,65.41
2023-02-26T00:41:50.147Z,65.41
2023-02-26T00:42:50.152Z,65.31
2023-02-26T00:43:50.043Z,65.12
2023-02-26T00:44:50.012Z,65.12
2023-02-26T00:45:50.004Z,64.78
2023-02-26T00:46:49.905Z,64.65
2023-02-26T00:47:49.999Z,65.41
2023-02-26T00:48:49.809Z,65.12
2023-02-26T00:49:49.760Z,65.41
2023-02-26T00:50:49.711Z,65.69
2023-02-26T00:51:49.661Z,65.41
2023-02-26T00:52:49.621Z,65.22
2023-02-26T00:53:49.742Z,65.22
2023-02-26T00:54:49.520Z,65.31
2023-02-26T00:55:49.476Z,65.78
2023-02-26T00:56:49.431Z,65.31
2023-02-26T00:57:49.374Z,65.97
2023-02-26T00:58:49.331Z,65.59
2023-02-26T00:59:49.301Z,65.59
2023-02-26T01:00:49.234Z,65.12
2023-02-26T01:01:49.232Z,65.41
2023-02-26T01:02:49.136Z,65.50
2023-02-26T01:03:49.130Z,65.59
2023-02-26T01:04:49.052Z,66.07
2023-02-26T01:05:49.170Z,65.31
2023-02-26T01:06:48.953Z,65.22
2023-02-26T01:07:48.895Z,65.12
2023-02-26T01:08:48.849Z,65.59
2023-02-26T01:09:48.796Z,65.31
2023-02-26T01:10:48.751Z,65.97
2023-02-26T01:11:48.714Z,65.41
2023-02-26T01:12:48.661Z,65.50
2023-02-26T01:13:48.606Z,65.12
2023-02-26T01:14:48.569Z,65.31
2023-02-26T01:15:48.533Z,65.41
2023-02-26T01:16:48.467Z,65.22
2023-02-26T01:17:48.437Z,65.22
2023-02-26T01:18:48.372Z,64.74
2023-02-26T01:19:48.318Z,64.84
2023-02-26T01:20:48.282Z,64.55
2023-02-26T01:21:48.223Z,64.74
2023-02-26T01:22:48.185Z,65.03
2023-02-26T01:23:48.138Z,64.84
2023-02-26T01:24:48.087Z,64.74
2023-02-26T01:25:48.062Z,64.74
2023-02-26T01:26:47.988Z,65.12
2023-02-26T01:27:47.946Z,65.41
2023-02-26T01:28:47.887Z,64.84
2023-02-26T01:29:47.844Z,65.12
2023-02-26T01:30:47.871Z,65.22
2023-02-26T01:31:47.901Z,65.88
2023-02-26T01:32:47.750Z,65.69
2023-02-26T01:33:47.660Z,65.88
2023-02-26T01:34:47.608Z,65.41
2023-02-26T01:35:47.555Z,65.41
2023-02-26T01:36:47.503Z,65.12
2023-02-26T01:37:47.458Z,65.41
2023-02-26T01:38:47.409Z,65.50
2023-02-26T01:39:47.380Z,65.50
2023-02-26T01:40:47.316Z,65.28
2023-02-26T01:41:47.274Z,65.56
2023-02-26T01:42:47.226Z,65.37
2023-02-26T01:43:47.169Z,65.28
2023-02-26T01:44:47.125Z,65.37
2023-02-26T01:45:47.088Z,65.56
2023-02-26T01:46:47.041Z,65.66
2023-02-26T01:47:46.979Z,65.75
2023-02-26T01:48:46.935Z,65.09
2023-02-26T01:49:46.909Z,65.56
2023-02-26T01:50:46.839Z,65.09
2023-02-26T01:51:46.809Z,65.37
2023-02-26T01:52:46.744Z,65.66
2023-02-26T01:53:46.695Z,65.56
2023-02-26T01:54:46.654Z,65.84
2023-02-26T01:55:46.623Z,66.13
2023-02-26T01:56:46.546Z,66.13
2023-02-26T01:57:46.500Z,66.00
2023-02-26T01:58:46.453Z,66.03
2023-02-26T01:59:46.400Z,66.13
2023-02-26T02:00:46.359Z,65.53
2023-02-26T02:01:46.324Z,65.15
2023-02-26T02:02:46.318Z,65.44
2023-02-26T02:03:46.260Z,65.53
2023-02-26T02:04:46.159Z,66.19
2023-02-26T02:05:46.116Z,65.91
2023-02-26T02:06:46.096Z,66.19
2023-02-26T02:07:46.038Z,65.91
2023-02-26T02:08:45.975Z,66.47
2023-02-26T02:09:45.919Z,66.00
2023-02-26T02:10:45.879Z,66.38
2023-02-26T02:11:45.818Z,66.86
2023-02-26T02:12:45.776Z,66.76
2023-02-26T02:13:45.738Z,66.38
2023-02-26T02:14:45.674Z,66.95
2023-02-26T02:15:45.624Z,67.05
2023-02-26T02:16:45.605Z,66.53
2023-02-26T02:17:45.552Z,66.95
2023-02-26T02:18:45.477Z,67.01
2023-02-26T02:19:45.425Z,67.49
2023-02-26T02:20:45.381Z,67.49
2023-02-26T02:21:45.329Z,67.49
2023-02-26T02:22:45.275Z,67.30
2023-02-26T02:23:45.252Z,67.49
2023-02-26T02:24:45.190Z,67.49
2023-02-26T02:25:45.140Z,67.30
2023-02-26T02:26:45.098Z,67.20
2023-02-26T02:27:45.030Z,67.68
2023-02-26T02:28:44.987Z,68.05
2023-02-26T02:29:44.956Z,68.24
2023-02-26T02:30:44.907Z,68.05
2023-02-26T02:31:44.964Z,67.96
2023-02-26T02:32:44.788Z,68.24
2023-02-26T02:33:44.750Z,68.15
2023-02-26T02:34:44.692Z,67.86
2023-02-26T02:35:44.672Z,68.15
2023-02-26T02:36:44.594Z,68.15
2023-02-26T02:37:44.543Z,67.68
2023-02-26T02:38:44.492Z,67.96
2023-02-26T02:39:44.454Z,67.39
2023-02-26T02:40:44.394Z,67.30
2023-02-26T02:41:44.371Z,67.86
2023-02-26T02:42:44.296Z,68.24
2023-02-26T02:43:44.249Z,67.68
2023-02-26T02:44:44.207Z,68.15
2023-02-26T02:45:44.231Z,67.86
2023-02-26T02:46:44.143Z,67.96
2023-02-26T02:47:44.068Z,68.15
2023-02-26T02:48:44.006Z,68.33
2023-02-26T02:49:43.966Z,68.24
2023-02-26T02:50:43.919Z,68.52
2023-02-26T02:51:43.859Z,68.43
2023-02-26T02:52:43.810Z,68.33
2023-02-26T02:53:43.921Z,68.33
2023-02-26T02:54:43.714Z,68.24
2023-02-26T02:55:43.662Z,68.33
2023-02-26T02:56:43.614Z,68.15
2023-02-26T02:57:43.565Z,68.15
2023-02-26T02:58:43.515Z,68.24
2023-02-26T02:59:43.512Z,68.33
2023-02-26T03:00:43.484Z,68.43
2023-02-26T03:01:43.369Z,68.71
2023-02-26T03:02:43.361Z,68.71
2023-02-26T03:03:43.270Z,68.90
2023-02-26T03:04:43.222Z,68.90
2023-02-26T03:05:43.185Z,69.00
2023-02-26T03:06:43.120Z,69.09
2023-02-26T03:07:43.073Z,68.90
2023-02-26T03:08:43.028Z,69.00
2023-02-26T03:09:43.019Z,68.77
2023-02-26T03:10:42.932Z,68.68
2023-02-26T03:11:42.881Z,69.44
2023-02-26T03:12:42.832Z,69.44
2023-02-26T03:13:42.779Z,69.38
2023-02-26T03:14:42.756Z,69.66
2023-02-26T03:15:42.680Z,69.38
2023-02-26T03:16:42.690Z,68.96
2023-02-26T03:17:42.627Z,69.25
2023-02-26T03:18:42.571Z,69.47
2023-02-26T03:19:42.484Z,69.63
2023-02-26T03:20:42.437Z,69.76
2023-02-26T03:21:42.408Z,69.47
2023-02-26T03:22:42.336Z,69.66
2023-02-26T03:23:42.284Z,69.47
2023-02-26T03:24:42.237Z,69.38
2023-02-26T03:25:42.196Z,69.38
2023-02-26T03:26:42.141Z,69.66
2023-02-26T03:27:42.117Z,69.00
2023-02-26T03:28:42.053Z,69.00
2023-02-26T03:29:41.998Z,69.00
2023-02-26T03:30:41.945Z,69.19
2023-02-26T03:31:41.969Z,69.09
2023-02-26T03:32:41.893Z,68.90
2023-02-26T03:33:41.823Z,69.28
2023-02-26T03:34:41.780Z,69.09
2023-02-26T03:35:41.699Z,68.62
2023-02-26T03:36:41.650Z,68.24
2023-02-26T03:37:41.601Z,68.15
2023-02-26T03:38:41.556Z,68.24
2023-02-26T03:39:41.832Z,68.43
2023-02-26T03:40:41.454Z,68.33
2023-02-26T03:41:41.412Z,67.86
2023-02-26T03:42:41.354Z,68.24
2023-02-26T03:43:41.303Z,68.33
2023-02-26T03:44:41.257Z,67.96
2023-02-26T03:45:41.327Z,68.24
2023-02-26T03:46:41.159Z,67.68
2023-02-26T03:47:41.108Z,67.58
2023-02-26T03:48:41.117Z,67.20
2023-02-26T03:49:41.014Z,67.68
2023-02-26T03:50:40.966Z,67.20
2023-02-26T03:51:40.945Z,67.49
2023-02-26T03:52:40.871Z,67.49
2023-02-26T03:53:40.835Z,67.11
2023-02-26T03:54:40.769Z,66.53
2023-02-26T03:55:40.719Z,67.20
2023-02-26T03:56:40.671Z,66.92
2023-02-26T03:57:40.616Z,66.92
2023-02-26T03:58:40.587Z,66.53
2023-02-26T03:59:40.517Z,66.25
2023-02-26T04:00:42.802Z,66.63
2023-02-26T04:01:40.421Z,66.35
2023-02-26T04:02:40.401Z,66.16
2023-02-26T04:03:40.339Z,65.97
2023-02-26T04:04:40.338Z,65.97
2023-02-26T04:05:40.225Z,65.97
2023-02-26T04:06:40.173Z,65.97
2023-02-26T04:07:40.129Z,65.97
2023-02-26T04:08:40.101Z,65.88
2023-02-26T04:09:40.033Z,65.88
2023-02-26T04:10:39.983Z,66.25
2023-02-26T04:11:39.930Z,65.69
2023-02-26T04:12:39.882Z,65.97
2023-02-26T04:13:39.836Z,65.50
2023-02-26T04:14:39.794Z,65.59
2023-02-26T04:15:39.752Z,65.02
2023-02-26T04:16:39.706Z,65.31
2023-02-26T04:17:39.640Z,65.31
2023-02-26T04:18:39.585Z,65.59
2023-02-26T04:19:39.535Z,65.21
2023-02-26T04:20:39.500Z,65.12
2023-02-26T04:21:39.444Z,65.31
2023-02-26T04:22:39.393Z,65.12
2023-02-26T04:23:39.343Z,65.31
2023-02-26T04:24:39.297Z,64.83
2023-02-26T04:25:39.248Z,65.12
2023-02-26T04:26:39.210Z,64.64
2023-02-26T04:27:39.142Z,64.55
2023-02-26T04:28:39.098Z,64.17
2023-02-26T04:29:39.057Z,64.26
2023-02-26T04:30:39.065Z,64.07
2023-02-26T04:31:38.990Z,63.60
2023-02-26T04:32:39.006Z,63.89
2023-02-26T04:33:38.850Z,63.42
2023-02-26T04:34:38.804Z,63.42
2023-02-26T04:35:38.748Z,63.60
2023-02-26T04:36:38.722Z,62.56
2023-02-26T04:37:38.652Z,62.66
2023-02-26T04:38:38.600Z,62.94
2023-02-26T04:39:38.561Z,62.75
2023-02-26T04:40:38.500Z,62.47
2023-02-26T04:41:38.507Z,62.75
2023-02-26T04:42:38.403Z,62.85
2023-02-26T04:43:38.362Z,62.75
2023-02-26T04:44:38.307Z,62.94
2023-02-26T04:45:38.262Z,62.18
2023-02-26T04:46:38.230Z,62.09
2023-02-26T04:47:38.264Z,62.09
2023-02-26T04:48:38.112Z,62.09
2023-02-26T04:49:38.058Z,61.33
2023-02-26T04:50:38.009Z,61.61
2023-02-26T04:51:37.964Z,61.24
2023-02-26T04:52:37.909Z,61.80
2023-02-26T04:53:37.892Z,61.61
2023-02-26T04:54:37.813Z,61.43
2023-02-26T04:55:37.763Z,61.61
2023-02-26T04:56:37.715Z,61.52
2023-02-26T04:57:37.666Z,61.90
2023-02-26T04:58:37.613Z,61.52
2023-02-26T04:59:37.737Z,61.24
2023-02-26T05:00:37.513Z,60.38
2023-02-26T05:01:37.526Z,60.38
2023-02-26T05:02:37.423Z,60.58
2023-02-26T05:03:37.372Z,59.91
2023-02-26T05:04:37.381Z,60.67
2023-02-26T05:05:37.431Z,60.67
2023-02-26T05:06:37.244Z,60.38
2023-02-26T05:07:37.185Z,60.38
2023-02-26T05:08:37.124Z,60.48
2023-02-26T05:09:37.076Z,60.38
2023-02-26T05:10:37.038Z,60.58
2023-02-26T05:11:37.007Z,60.19
2023-02-26T05:12:36.932Z,60.29
2023-02-26T05:13:36.878Z,59.79
2023-02-26T05:14:36.857Z,60.45
2023-02-26T05:15:36.782Z,60.19
2023-02-26T05:16:36.752Z,60.64
2023-02-26T05:17:36.684Z,60.93
2023-02-26T05:18:36.666Z,61.24
2023-02-26T05:19:36.586Z,61.30
2023-02-26T05:20:36.539Z,61.87
2023-02-26T05:21:36.509Z,61.77
2023-02-26T05:22:36.433Z,61.90
2023-02-26T05:23:36.395Z,62.37
2023-02-26T05:24:36.336Z,61.99
2023-02-26T05:25:36.292Z,62.18
2023-02-26T05:26:36.236Z,62.06
2023-02-26T05:27:36.208Z,61.99
2023-02-26T05:28:36.138Z,62.47
2023-02-26T05:29:36.090Z,62.18
2023-02-26T05:30:36.068Z,63.01
2023-02-26T05:31:36.022Z,62.72
2023-02-26T05:32:35.951Z,62.53
2023-02-26T05:33:35.905Z,62.66
2023-02-26T05:34:35.849Z,62.53
2023-02-26T05:35:35.791Z,62.44
2023-02-26T05:36:35.750Z,62.44
2023-02-26T05:37:35.696Z,62.72
2023-02-26T05:38:35.657Z,62.72
2023-02-26T05:39:35.637Z,63.32
2023-02-26T05:40:35.546Z,63.48
2023-02-26T05:41:35.496Z,63.20
2023-02-26T05:42:35.447Z,63.70
2023-02-26T05:43:35.401Z,63.70
2023-02-26T05:44:35.346Z,63.60
2023-02-26T05:45:35.402Z,64.17
2023-02-26T05:46:35.283Z,64.26
2023-02-26T05:47:35.195Z,64.07
2023-02-26T05:48:35.151Z,64.42
2023-02-26T05:49:35.104Z,64.99
2023-02-26T05:50:35.051Z,64.61
2023-02-26T05:51:35.018Z,64.90
2023-02-26T05:52:34.957Z,65.28
2023-02-26T05:53:34.904Z,64.71
2023-02-26T05:54:34.853Z,65.37
2023-02-26T05:55:34.808Z,65.37
2023-02-26T05:56:34.757Z,65.28
2023-02-26T05:57:34.722Z,65.47
2023-02-26T05:58:34.706Z,65.37
2023-02-26T05:59:34.611Z,65.56
2023-02-26T06:03:48.931Z,65.56
2023-02-26T06:04:48.858Z,65.47
2023-02-26T06:05:48.799Z,65.09
2023-02-26T06:06:48.751Z,66.13
2023-02-26T06:07:48.700Z,66.13
2023-02-26T06:08:48.646Z,65.94
2023-02-26T06:09:48.610Z,66.22
2023-02-26T06:10:48.551Z,66.22
2023-02-26T06:11:48.498Z,66.41
2023-02-26T06:12:48.444Z,66.41
2023-02-26T06:13:48.395Z,66.13
2023-02-26T06:14:48.346Z,66.03
2023-02-26T06:15:48.315Z,66.50
2023-02-26T06:16:48.270Z,66.41
2023-02-26T06:17:48.188Z,66.03
2023-02-26T06:18:48.159Z,66.50
2023-02-26T06:19:48.089Z,66.03
2023-02-26T06:20:48.069Z,66.03
2023-02-26T06:21:47.995Z,66.13
2023-02-26T06:22:47.945Z,66.60
2023-02-26T06:23:47.906Z,66.41
2023-02-26T06:24:47.841Z,66.25
2023-02-26T06:25:47.797Z,66.06
2023-02-26T06:26:47.795Z,66.03
2023-02-26T06:27:47.695Z,65.37
2023-02-26T06:28:47.650Z,65.94
2023-02-26T06:29:47.608Z,65.37
2023-02-26T06:30:47.629Z,65.37
2023-02-26T06:31:47.639Z,65.84
2023-02-26T06:32:47.561Z,65.56
2023-02-26T06:33:47.409Z,65.09
2023-02-26T06:34:47.357Z,65.37
2023-02-26T06:35:47.303Z,65.09
2023-02-26T06:36:47.265Z,64.90
2023-02-26T06:37:47.205Z,65.09
2023-02-26T06:38:47.184Z,64.61
2023-02-26T06:39:47.106Z,64.61
2023-02-26T06:40:47.058Z,65.09
2023-02-26T06:41:47.019Z,64.90
2023-02-26T06:42:46.963Z,65.37
2023-02-26T06:43:46.913Z,64.99
2023-02-26T06:44:46.886Z,65.21
2023-02-26T06:45:46.834Z,64.83
2023-02-26T06:46:46.767Z,64.52
2023-02-26T06:47:46.754Z,64.04
2023-02-26T06:48:46.664Z,64.14
2023-02-26T06:49:46.623Z,64.04
2023-02-26T06:50:46.593Z,64.04
2023-02-26T06:51:46.518Z,63.76
2023-02-26T06:52:46.467Z,63.57
2023-02-26T06:53:46.419Z,63.85
2023-02-26T06:54:46.367Z,63.20
2023-02-26T06:55:46.318Z,63.95
2023-02-26T06:56:46.283Z,63.76
2023-02-26T06:57:46.227Z,63.67
2023-02-26T06:58:46.196Z,63.85
2023-02-26T06:59:46.144Z,63.57
2023-02-26T07:00:46.128Z,62.91
2023-02-26T07:01:46.021Z,63.57
2023-02-26T07:02:45.979Z,63.57
2023-02-26T07:03:45.925Z,63.48
2023-02-26T07:04:45.886Z,63.57
2023-02-26T07:05:45.825Z,62.72
2023-02-26T07:06:45.800Z,62.72
2023-02-26T07:07:45.721Z,62.63
2023-02-26T07:08:45.694Z,62.53
2023-02-26T07:09:46.147Z,62.63
2023-02-26T07:10:45.590Z,62.72
2023-02-26T07:11:45.526Z,62.44
2023-02-26T07:12:45.481Z,62.15
2023-02-26T07:13:45.432Z,62.15
2023-02-26T07:14:45.414Z,62.15
2023-02-26T07:15:46.339Z,61.96
2023-02-26T07:16:45.381Z,62.34
2023-02-26T07:17:45.232Z,61.43
2023-02-26T07:18:45.210Z,61.80
2023-02-26T07:19:45.132Z,61.30
2023-02-26T07:20:45.108Z,61.43
2023-02-26T07:21:45.065Z,61.11
2023-02-26T07:22:44.986Z,61.30
2023-02-26T07:23:44.936Z,60.45
2023-02-26T07:24:44.884Z,60.26
2023-02-26T07:25:44.833Z,59.98
2023-02-26T07:26:44.784Z,60.55
2023-02-26T07:27:44.926Z,60.83
2023-02-26T07:28:44.700Z,60.93
2023-02-26T07:29:44.642Z,61.11
2023-02-26T07:30:44.644Z,60.93
2023-02-26T07:31:44.644Z,60.64
2023-02-26T07:32:44.495Z,60.07
2023-02-26T07:33:44.474Z,60.26
2023-02-26T07:34:44.394Z,60.36
2023-02-26T07:35:44.350Z,60.45
2023-02-26T07:36:44.297Z,59.79
2023-02-26T07:37:44.241Z,60.45
2023-02-26T07:38:44.195Z,60.64
2023-02-26T07:39:44.152Z,60.17
2023-02-26T07:40:44.100Z,60.36
2023-02-26T07:41:44.055Z,59.88
2023-02-26T07:42:43.990Z,59.79
2023-02-26T07:43:43.948Z,59.69
2023-02-26T07:44:43.898Z,59.41
2023-02-26T07:45:43.868Z,59.69
2023-02-26T07:46:43.797Z,59.31
2023-02-26T07:47:43.750Z,58.94
2023-02-26T07:48:43.707Z,58.65
2023-02-26T07:49:43.651Z,59.22
2023-02-26T07:50:43.598Z,59.60
2023-02-26T07:51:43.595Z,59.22
2023-02-26T07:52:43.499Z,58.75
2023-02-26T07:53:43.449Z,58.94
2023-02-26T07:54:43.400Z,58.75
2023-02-26T07:55:43.345Z,58.94
2023-02-26T07:56:43.296Z,58.94
2023-02-26T07:57:43.305Z,58.47
2023-02-26T07:58:43.205Z,58.84
2023-02-26T07:59:43.152Z,59.79
2023-02-26T08:00:43.111Z,59.69
2023-02-26T08:01:43.098Z,59.63
2023-02-26T08:02:43.006Z,59.63
2023-02-26T08:03:42.976Z,58.59
2023-02-26T08:04:42.900Z,58.78
2023-02-26T08:05:42.856Z,58.78
2023-02-26T08:06:42.805Z,58.78
2023-02-26T08:07:42.751Z,58.30
2023-02-26T08:08:42.708Z,58.30
2023-02-26T08:09:42.681Z,58.02
2023-02-26T08:10:42.604Z,57.54
2023-02-26T08:11:42.565Z,57.54
2023-02-26T08:12:42.509Z,57.73
2023-02-26T08:13:42.457Z,57.07
2023-02-26T08:14:42.411Z,56.70
2023-02-26T08:15:42.432Z,55.84
2023-02-26T08:16:42.310Z,55.75
2023-02-26T08:17:42.287Z,56.13
2023-02-26T08:18:42.214Z,55.75
2023-02-26T08:19:42.192Z,55.94
2023-02-26T08:20:42.114Z,55.53
2023-02-26T08:21:42.064Z,54.80
2023-02-26T08:22:42.039Z,54.87
2023-02-26T08:23:41.963Z,54.42
2023-02-26T08:24:41.915Z,54.21
2023-02-26T08:25:41.892Z,54.11
2023-02-26T08:26:41.818Z,54.11
2023-02-26T08:27:41.778Z,54.30
2023-02-26T08:28:41.729Z,54.68
2023-02-26T08:29:41.685Z,54.68
2023-02-26T08:30:41.691Z,54.39
2023-02-26T08:31:41.736Z,55.15
2023-02-26T08:32:41.574Z,54.87
2023-02-26T08:33:41.470Z,54.58
2023-02-26T08:34:41.424Z,54.30
2023-02-26T08:35:41.389Z,54.49
2023-02-26T08:36:41.324Z,55.15
2023-02-26T08:37:41.276Z,54.77
2023-02-26T08:38:41.229Z,55.06
2023-02-26T08:39:41.175Z,55.06
2023-02-26T08:40:41.125Z,55.82
2023-02-26T08:41:41.090Z,55.82
2023-02-26T08:42:41.022Z,54.77
2023-02-26T08:43:40.974Z,55.82
2023-02-26T08:44:40.925Z,55.82
2023-02-26T08:45:40.880Z,55.53
2023-02-26T08:46:40.889Z,54.87
2023-02-26T08:47:53.817Z,54.77
2023-02-26T08:48:40.723Z,55.06
2023-02-26T08:49:40.682Z,54.39
2023-02-26T08:50:40.660Z,54.71
2023-02-26T08:51:40.580Z,53.95
2023-02-26T08:52:40.527Z,54.33
2023-02-26T08:53:40.481Z,54.33
2023-02-26T08:54:40.436Z,54.61
2023-02-26T08:55:40.386Z,54.42
2023-02-26T08:56:40.360Z,53.85
2023-02-26T08:57:40.284Z,53.57
2023-02-26T08:58:40.238Z,52.62
2023-02-26T08:59:40.186Z,52.72
2023-02-26T09:00:40.143Z,52.62
2023-02-26T09:01:40.133Z,52.72
2023-02-26T09:02:40.132Z,52.75
2023-02-26T09:03:40.006Z,52.84
2023-02-26T09:04:40.000Z,51.70
2023-02-26T09:05:39.909Z,51.61
2023-02-26T09:06:39.902Z,51.80
2023-02-26T09:07:39.801Z,51.51
2023-02-26T09:08:39.762Z,51.70
2023-02-26T09:09:39.700Z,51.32
2023-02-26T09:10:41.052Z,51.42
2023-02-26T09:11:39.619Z,51.70
2023-02-26T09:12:39.564Z,51.04
2023-02-26T09:13:39.504Z,50.95
2023-02-26T09:14:39.483Z,51.04
2023-02-26T09:15:39.438Z,50.38
2023-02-26T09:16:39.400Z,50.09
2023-02-26T09:17:39.335Z,50.09
2023-02-26T09:18:39.265Z,50.19
2023-02-26T09:19:39.239Z,50.09
2023-02-26T09:20:39.179Z,50.19
2023-02-26T09:21:39.121Z,50.00
2023-02-26T09:22:39.076Z,49.81
2023-02-26T09:23:39.027Z,49.52
2023-02-26T09:24:39.041Z,49.71
2023-02-26T09:25:38.970Z,49.52
2023-02-26T09:26:38.880Z,49.52
2023-02-26T09:27:38.833Z,49.52
2023-02-26T09:28:38.825Z,49.24
2023-02-26T09:29:38.738Z,49.15
2023-02-26T09:30:38.716Z,49.15
2023-02-26T09:31:38.750Z,49.52
2023-02-26T09:32:38.707Z,49.52
2023-02-26T09:33:38.540Z,49.33
2023-02-26T09:34:38.497Z,49.33
2023-02-26T09:35:38.443Z,49.36
2023-02-26T09:36:38.393Z,49.17
2023-02-26T09:37:38.358Z,49.29
2023-02-26T09:38:38.299Z,47.42
2023-02-26T09:39:38.254Z,46.80
2023-02-26T09:40:38.221Z,45.21
2023-02-26T09:41:38.157Z,42.83
2023-02-26T09:42:38.110Z,41.62
2023-02-26T09:43:38.070Z,40.95
2023-02-26T09:44:38.023Z,40.48
2023-02-26T09:45:38.055Z,39.84
2023-02-26T09:46:37.984Z,39.74
2023-02-26T09:47:37.884Z,39.48
2023-02-26T09:48:37.835Z,39.02
2023-02-26T09:49:37.793Z,37.97
2023-02-26T09:50:37.749Z,36.66
2023-02-26T09:51:37.712Z,35.60
2023-02-26T09:52:37.687Z,35.31
2023-02-26T09:53:37.618Z,35.12
2023-02-26T09:54:37.578Z,35.12
2023-02-26T09:55:37.532Z,34.74
2023-02-26T09:56:37.488Z,34.83
2023-02-26T09:57:37.462Z,34.91
2023-02-26T09:58:37.514Z,34.72
2023-02-26T09:59:37.360Z,35.17
2023-02-26T10:00:37.312Z,35.84
2023-02-26T10:01:37.307Z,36.60
2023-02-26T10:02:37.229Z,36.77
2023-02-26T10:03:37.196Z,37.52
2023-02-26T10:04:37.163Z,37.80
2023-02-26T10:05:37.100Z,38.07
2023-02-26T10:06:37.067Z,38.35
2023-02-26T10:07:37.018Z,39.30
2023-02-26T10:08:36.967Z,39.21
2023-02-26T10:09:36.923Z,39.37
2023-02-26T10:10:37.051Z,39.76
2023-02-26T10:11:36.837Z,40.69
2023-02-26T10:12:36.803Z,41.35
2023-02-26T10:13:38.578Z,41.63
2023-02-26T10:14:36.736Z,42.20
2023-02-26T10:15:36.684Z,42.30
2023-02-26T10:16:36.644Z,43.15
2023-02-26T10:17:36.561Z,42.86
2023-02-26T10:18:36.521Z,42.96
2023-02-26T10:19:36.471Z,42.86
2023-02-26T10:20:36.434Z,42.77
2023-02-26T10:21:36.376Z,42.77
2023-02-26T10:22:36.362Z,42.86
2023-02-26T10:23:36.289Z,43.15
2023-02-26T10:24:36.263Z,42.96
2023-02-26T10:25:36.195Z,42.86
2023-02-26T10:26:36.151Z,42.77
2023-02-26T10:27:36.100Z,43.05
2023-02-26T10:28:36.055Z,43.05
2023-02-26T10:29:36.041Z,43.24
2023-02-26T10:30:36.016Z,43.62
2023-02-26T10:31:35.992Z,43.74
2023-02-26T10:32:35.978Z,43.46
2023-02-26T10:33:35.828Z,42.79
2023-02-26T10:34:35.777Z,42.41
2023-02-26T10:35:35.733Z,42.32
2023-02-26T10:36:35.674Z,42.51
2023-02-26T10:37:35.745Z,42.32
2023-02-26T10:38:35.582Z,42.22
2023-02-26T10:39:35.551Z,42.41
2023-02-26T10:40:35.506Z,42.22
2023-02-26T10:41:35.445Z,42.22
2023-02-26T10:42:35.396Z,41.94
2023-02-26T10:43:35.541Z,41.56
2023-02-26T10:44:35.309Z,41.63
2023-02-26T10:45:35.304Z,41.92
2023-02-26T10:46:35.212Z,42.11
2023-02-26T10:47:35.164Z,42.20
2023-02-26T10:48:35.133Z,42.49
2023-02-26T10:49:35.084Z,41.82
2023-02-26T10:50:35.034Z,42.01
2023-02-26T10:51:34.978Z,42.11
2023-02-26T10:52:34.925Z,42.39
2023-02-26T10:53:34.900Z,42.39
2023-02-26T10:54:34.833Z,42.39
2023-02-26T10:55:34.786Z,42.30
2023-02-26T10:56:34.784Z,42.39
2023-02-26T10:57:34.710Z,42.47
2023-02-26T10:58:34.647Z,42.18
2023-02-26T10:59:34.621Z,42.18
2023-02-26T11:00:34.584Z,42.75
2023-02-26T11:01:34.557Z,43.41
2023-02-26T11:02:34.474Z,43.13
2023-02-26T11:03:34.411Z,43.51
2023-02-26T11:04:34.372Z,43.79
2023-02-26T11:05:34.341Z,44.08
2023-02-26T11:06:34.282Z,43.70
2023-02-26T11:07:34.229Z,43.79
2023-02-26T11:08:34.180Z,44.10
2023-02-26T11:09:34.164Z,43.91
2023-02-26T11:10:34.087Z,44.01
2023-02-26T11:11:34.064Z,43.34
2023-02-26T11:12:34.007Z,43.34
2023-02-26T11:13:33.954Z,42.96
2023-02-26T11:14:33.900Z,43.24
2023-02-26T11:15:33.859Z,44.20
2023-02-26T11:16:33.817Z,43.82
2023-02-26T11:17:33.786Z,44.29
2023-02-26T11:18:33.715Z,43.91
2023-02-26T11:19:33.694Z,44.10
2023-02-26T11:20:33.621Z,43.60
2023-02-26T11:21:33.577Z,43.79
2023-02-26T11:22:33.534Z,43.98
2023-02-26T11:23:33.482Z,44.27
2023-02-26T11:24:33.447Z,44.36
2023-02-26T11:25:35.672Z,44.67
2023-02-26T11:26:33.341Z,45.52
2023-02-26T11:27:33.296Z,44.95
2023-02-26T11:28:33.248Z,45.24
2023-02-26T11:29:33.219Z,44.38
2023-02-26T11:30:33.202Z,44.31
2023-02-26T11:31:33.261Z,43.95
2023-02-26T11:32:33.115Z,42.93
2023-02-26T11:33:33.024Z,42.00
2023-02-26T11:34:32.971Z,41.14
2023-02-26T11:35:32.951Z,39.84
2023-02-26T11:36:32.879Z,38.41
2023-02-26T11:37:32.866Z,37.93
2023-02-26T11:38:32.837Z,37.44
2023-02-26T11:39:32.744Z,37.80
2023-02-26T11:40:32.700Z,37.90
2023-02-26T11:41:32.658Z,39.13
2023-02-26T11:42:32.612Z,39.11
2023-02-26T11:43:32.636Z,39.40
2023-02-26T11:44:32.543Z,39.85
2023-02-26T11:45:32.474Z,40.33
2023-02-26T11:46:32.444Z,40.89
2023-02-26T11:47:32.395Z,41.27
2023-02-26T11:48:32.336Z,41.18
2023-02-26T11:49:32.294Z,41.27
2023-02-26T11:50:32.265Z,41.46
2023-02-26T11:51:32.203Z,41.66
2023-02-26T11:52:32.154Z,41.08
2023-02-26T11:53:32.110Z,41.46
2023-02-26T11:54:32.060Z,41.67
2023-02-26T11:55:32.013Z,40.92
2023-02-26T11:56:31.979Z,40.34
2023-02-26T11:57:31.926Z,39.79
2023-02-26T11:58:31.891Z,39.61
2023-02-26T11:59:31.828Z,39.04
2023-02-26T12:00:31.785Z,39.13
2023-02-26T12:01:31.758Z,39.04
2023-02-26T12:02:31.713Z,38.65
2023-02-26T12:03:31.705Z,38.37
2023-02-26T12:04:31.604Z,38.28
2023-02-26T12:05:31.559Z,38.01
2023-02-26T12:06:31.514Z,37.63
2023-02-26T12:07:31.483Z,37.73
2023-02-26T12:08:31.424Z,37.82
2023-02-26T12:09:31.380Z,37.92
2023-02-26T12:10:31.341Z,37.84
2023-02-26T12:11:31.448Z,37.76
2023-02-26T12:12:31.266Z,37.30
2023-02-26T12:13:31.219Z,36.64
2023-02-26T12:14:31.155Z,35.12
2023-02-26T12:15:31.111Z,34.74
2023-02-26T12:16:31.086Z,34.74
2023-02-26T12:17:31.017Z,34.64
2023-02-26T12:18:31.011Z,34.74
2023-02-26T12:19:30.937Z,34.83
2023-02-26T12:20:30.890Z,34.17
2023-02-26T12:21:30.897Z,34.17
2023-02-26T12:22:30.804Z,34.44
2023-02-26T12:23:30.769Z,34.91
2023-02-26T12:24:30.713Z,35.86
2023-02-26T12:25:30.672Z,36.41
2023-02-26T12:26:30.631Z,36.79
2023-02-26T12:27:30.605Z,37.08
2023-02-26T12:28:30.539Z,37.15
2023-02-26T12:29:30.495Z,37.73
2023-02-26T12:30:30.467Z,37.74
2023-02-26T12:31:30.839Z,37.82
2023-02-26T12:34:02.325Z,38.58
2023-02-26T12:35:02.088Z,38.58
2023-02-26T12:36:02.188Z,39.13
2023-02-26T12:37:02.020Z,39.70
2023-02-26T12:38:02.203Z,39.51
2023-02-26T12:39:02.002Z,39.61
2023-02-26T12:40:02.014Z,39.98
2023-02-26T12:41:01.823Z,39.79
2023-02-26T12:42:02.038Z,39.70
2023-02-26T12:43:01.876Z,39.89
2023-02-26T12:44:01.835Z,40.37
2023-02-26T12:45:01.645Z,40.46
2023-02-26T12:46:01.752Z,40.37
2023-02-26T12:47:01.549Z,40.75
2023-02-26T12:48:01.766Z,40.94
2023-02-26T12:49:01.461Z,41.01
2023-02-26T12:50:01.586Z,41.01
2023-02-26T12:51:01.372Z,41.20
2023-02-26T12:52:01.804Z,41.30
2023-02-26T12:53:01.290Z,41.30
2023-02-26T12:54:01.226Z,41.30
2023-02-26T12:55:01.323Z,40.63
2023-02-26T12:56:01.135Z,41.01
2023-02-26T12:57:01.322Z,40.72